Witless Bay, Canada
Current Conditions -  °F | °C
As of 1:00 PM on Saturday 25 Oct 2014 (Local Time) from CYYT Reporting Station
Rain Showers Rain Showers  
Wind Chill: 43°   Ceiling: 100
Heat Index: 48°   Visibility: 0.25mi
Dew Point: 48°   Wind: 13mph
Humidity: 100%   Direction: 30°NNE
Pressure: 29.39"   Gusts: NA
Location:  47.28°N, 52.83°W
Report Text: CYYT 251500Z 03011KT 1/4SM R11/2200FT/N -SHRA FG VV001 09/09 A2939 RMK FG8 SLP955
Loading
Personal Weather Stations






























Interactive Weather Map
Tropical Storm Tracking
New forecast layout! Learn more

10-Day Weather Forecast

Advertisements
Track Severe Weather on mobile